sensor_id;sensor_type;location;lat;lon;timestamp;pressure;altitude;pressure_sealevel;temperature;humidity
26807;BME280;14380;49.910;6.792;2023-02-14T00:02:19;100653.50;;;1.83;100.00
26807;BME280;14380;49.910;6.792;2023-02-14T00:04:46;100647.41;;;1.81;100.00
26807;BME280;14380;49.910;6.792;2023-02-14T00:07:13;100655.09;;;1.71;100.00
26807;BME280;14380;49.910;6.792;2023-02-14T00:09:39;100653.41;;;1.75;100.00
26807;BME280;14380;49.910;6.792;2023-02-14T00:12:06;100642.00;;;1.63;100.00
26807;BME280;14380;49.910;6.792;2023-02-14T00:14:33;100653.34;;;1.70;100.00
26807;BME280;14380;49.910;6.792;2023-02-14T00:17:17;100641.25;;;1.75;100.00
26807;BME280;14380;49.910;6.792;2023-02-14T00:19:43;100641.88;;;1.53;100.00
26807;BME280;14380;49.910;6.792;2023-02-14T00:22:12;100650.69;;;1.67;100.00
26807;BME280;14380;49.910;6.792;2023-02-14T00:24:38;100641.84;;;1.50;100.00
26807;BME280;14380;49.910;6.792;2023-02-14T00:27:05;100647.91;;;1.48;100.00
26807;BME280;14380;49.910;6.792;2023-02-14T00:29:32;100648.78;;;1.51;100.00
26807;BME280;14380;49.910;6.792;2023-02-14T00:31:59;100647.03;;;1.50;100.00
26807;BME280;14380;49.910;6.792;2023-02-14T00:34:25;100642.56;;;1.39;100.00
26807;BME280;14380;49.910;6.792;2023-02-14T00:36:53;100642.69;;;1.50;100.00
26807;BME280;14380;49.910;6.792;2023-02-14T00:39:21;100638.47;;;1.60;100.00
26807;BME280;14380;49.910;6.792;2023-02-14T00:41:47;100637.53;;;1.55;100.00
26807;BME280;14380;49.910;6.792;2023-02-14T00:44:15;100640.94;;;1.49;100.00
26807;BME280;14380;49.910;6.792;2023-02-14T00:46:42;100639.09;;;1.40;100.00
26807;BME280;14380;49.910;6.792;2023-02-14T00:49:09;100637.19;;;1.27;100.00
26807;BME280;14380;49.910;6.792;2023-02-14T00:51:35;100637.28;;;1.34;100.00
26807;BME280;14380;49.910;6.792;2023-02-14T00:54:02;100634.66;;;1.33;100.00
26807;BME280;14380;49.910;6.792;2023-02-14T00:56:32;100639.03;;;1.36;100.00
26807;BME280;14380;49.910;6.792;2023-02-14T00:58:58;100631.00;;;1.17;100.00
26807;BME280;14380;49.910;6.792;2023-02-14T01:01:25;100640.59;;;1.21;100.00
26807;BME280;14380;49.910;6.792;2023-02-14T01:03:52;100641.38;;;1.14;100.00
26807;BME280;14380;49.910;6.792;2023-02-14T01:06:19;100638.97;;;1.31;100.00
26807;BME280;14380;49.910;6.792;2023-02-14T01:08:45;100639.69;;;1.21;100.00
26807;BME280;14380;49.910;6.792;2023-02-14T01:11:14;100641.44;;;1.22;100.00
26807;BME280;14380;49.910;6.792;2023-02-14T01:13:44;100642.22;;;1.14;100.00
26807;BME280;14380;49.910;6.792;2023-02-14T01:16:12;100646.56;;;1.15;100.00
26807;BME280;14380;49.910;6.792;2023-02-14T01:18:40;100636.19;;;1.17;100.00
26807;BME280;14380;49.910;6.792;2023-02-14T01:21:12;100641.22;;;1.04;100.00
26807;BME280;14380;49.910;6.792;2023-02-14T01:23:39;100638.72;;;1.12;100.00
26807;BME280;14380;49.910;6.792;2023-02-14T01:26:06;100637.53;;;0.90;100.00
26807;BME280;14380;49.910;6.792;2023-02-14T01:28:33;100635.94;;;0.98;100.00
26807;BME280;14380;49.910;6.792;2023-02-14T01:31:06;100640.38;;;1.06;100.00
26807;BME280;14380;49.910;6.792;2023-02-14T01:33:33;100638.53;;;0.98;100.00
26807;BME280;14380;49.910;6.792;2023-02-14T01:36:00;100642.94;;;1.02;100.00
26807;BME280;14380;49.910;6.792;2023-02-14T01:38:27;100643.81;;;1.04;100.00
26807;BME280;14380;49.910;6.792;2023-02-14T01:40:53;100642.88;;;0.99;100.00
26807;BME280;14380;49.910;6.792;2023-02-14T01:43:20;100649.06;;;1.06;100.00
26807;BME280;14380;49.910;6.792;2023-02-14T01:45:47;100641.06;;;0.94;100.00
26807;BME280;14380;49.910;6.792;2023-02-14T01:48:15;100637.47;;;0.84;100.00
26807;BME280;14380;49.910;6.792;2023-02-14T01:50:44;100644.28;;;0.77;100.00
26807;BME280;14380;49.910;6.792;2023-02-14T01:53:16;100637.38;;;0.79;100.00
26807;BME280;14380;49.910;6.792;2023-02-14T01:55:48;100635.53;;;0.70;100.00
26807;BME280;14380;49.910;6.792;2023-02-14T01:58:19;100634.75;;;0.76;100.00
26807;BME280;14380;49.910;6.792;2023-02-14T02:00:47;100636.53;;;0.79;100.00
26807;BME280;14380;49.910;6.792;2023-02-14T02:03:26;100634.63;;;0.70;100.00
26807;BME280;14380;49.910;6.792;2023-02-14T02:05:57;100634.72;;;0.74;100.00
26807;BME280;14380;49.910;6.792;2023-02-14T02:08:25;100634.59;;;0.65;100.00
26807;BME280;14380;49.910;6.792;2023-02-14T02:10:52;100628.38;;;0.55;100.00
26807;BME280;14380;49.910;6.792;2023-02-14T02:13:20;100633.63;;;0.58;100.00
26807;BME280;14380;49.910;6.792;2023-02-14T02:15:59;100634.47;;;0.57;100.00
26807;BME280;14380;49.910;6.792;2023-02-14T02:18:37;100629.34;;;0.62;100.00
26807;BME280;14380;49.910;6.792;2023-02-14T02:24:27;100631.81;;;0.56;100.00
26807;BME280;14380;49.910;6.792;2023-02-14T02:33:40;100627.38;;;0.47;100.00
26807;BME280;14380;49.910;6.792;2023-02-14T02:39:33;100617.81;;;0.46;100.00
26807;BME280;14380;49.910;6.792;2023-02-14T02:42:09;100627.31;;;0.44;100.00
26807;BME280;14380;49.910;6.792;2023-02-14T02:44:49;100613.56;;;0.51;100.00
26807;BME280;14380;49.910;6.792;2023-02-14T02:47:23;100619.53;;;0.46;100.00
26807;BME280;14380;49.910;6.792;2023-02-14T02:49:55;100613.25;;;0.33;100.00
26807;BME280;14380;49.910;6.792;2023-02-14T02:52:44;100613.22;;;0.29;100.00
26807;BME280;14380;49.910;6.792;2023-02-14T02:55:36;100616.81;;;0.36;100.00
26807;BME280;14380;49.910;6.792;2023-02-14T02:58:25;100614.22;;;0.38;100.00
26807;BME280;14380;49.910;6.792;2023-02-14T03:00:54;100620.19;;;0.32;100.00
26807;BME280;14380;49.910;6.792;2023-02-14T03:03:24;100609.97;;;0.41;100.00
26807;BME280;14380;49.910;6.792;2023-02-14T03:06:09;100615.19;;;0.44;100.00
26807;BME280;14380;49.910;6.792;2023-02-14T03:08:36;100606.47;;;0.41;100.00
26807;BME280;14380;49.910;6.792;2023-02-14T03:11:04;100605.34;;;0.25;100.00
26807;BME280;14380;49.910;6.792;2023-02-14T03:13:54;100602.91;;;0.36;100.00
26807;BME280;14380;49.910;6.792;2023-02-14T03:16:40;100612.47;;;0.37;100.00
26807;BME280;14380;49.910;6.792;2023-02-14T03:19:46;100616.91;;;0.42;100.00
26807;BME280;14380;49.910;6.792;2023-02-14T03:22:42;100612.53;;;0.40;100.00
26807;BME280;14380;49.910;6.792;2023-02-14T03:25:23;100611.72;;;0.46;100.00
26807;BME280;14380;49.910;6.792;2023-02-14T03:27:59;100608.28;;;0.45;100.00
26807;BME280;14380;49.910;6.792;2023-02-14T03:30:33;100607.31;;;0.40;100.00
26807;BME280;14380;49.910;6.792;2023-02-14T03:33:11;100604.63;;;0.34;100.00
26807;BME280;14380;49.910;6.792;2023-02-14T03:35:46;100604.56;;;0.31;100.00
26807;BME280;14380;49.910;6.792;2023-02-14T03:38:19;100599.25;;;0.23;100.00
26807;BME280;14380;49.910;6.792;2023-02-14T03:40:49;100607.91;;;0.23;100.00
26807;BME280;14380;49.910;6.792;2023-02-14T03:43:24;100615.56;;;0.16;100.00
26807;BME280;14380;49.910;6.792;2023-02-14T03:45:57;100617.38;;;0.18;100.00
26807;BME280;14380;49.910;6.792;2023-02-14T03:48:25;100615.50;;;0.11;100.00
26807;BME280;14380;49.910;6.792;2023-02-14T03:50:54;100612.00;;;0.09;100.00
26807;BME280;14380;49.910;6.792;2023-02-14T03:53:25;100611.00;;;0.02;100.00
26807;BME280;14380;49.910;6.792;2023-02-14T03:55:57;100600.66;;;0.04;100.00
26807;BME280;14380;49.910;6.792;2023-02-14T03:58:31;100599.81;;;0.06;100.00
26807;BME280;14380;49.910;6.792;2023-02-14T04:01:04;100599.06;;;0.12;100.00
26807;BME280;14380;49.910;6.792;2023-02-14T04:03:33;100603.19;;;-0.01;100.00
26807;BME280;14380;49.910;6.792;2023-02-14T04:06:00;100607.69;;;0.09;100.00
26807;BME280;14380;49.910;6.792;2023-02-14T04:08:28;100602.47;;;0.08;100.00
26807;BME280;14380;49.910;6.792;2023-02-14T04:10:57;100614.50;;;0.03;100.00
26807;BME280;14380;49.910;6.792;2023-02-14T04:13:25;100617.16;;;0.06;100.00
26807;BME280;14380;49.910;6.792;2023-02-14T04:15:54;100620.75;;;0.14;100.00
26807;BME280;14380;49.910;6.792;2023-02-14T04:18:20;100622.41;;;0.09;100.00
26807;BME280;14380;49.910;6.792;2023-02-14T04:21:05;100612.66;;;-0.03;100.00
26807;BME280;14380;49.910;6.792;2023-02-14T04:23:31;100618.66;;;-0.06;100.00
26807;BME280;14380;49.910;6.792;2023-02-14T04:25:58;100618.72;;;-0.03;100.00
26807;BME280;14380;49.910;6.792;2023-02-14T04:28:25;100612.72;;;0.00;100.00
26807;BME280;14380;49.910;6.792;2023-02-14T04:30:51;100611.84;;;-0.01;100.00
26807;BME280;14380;49.910;6.792;2023-02-14T04:33:19;100618.72;;;-0.04;100.00
26807;BME280;14380;49.910;6.792;2023-02-14T04:35:46;100623.00;;;-0.06;100.00
26807;BME280;14380;49.910;6.792;2023-02-14T04:38:13;100616.00;;;-0.10;100.00
26807;BME280;14380;49.910;6.792;2023-02-14T04:40:40;100610.75;;;-0.12;100.00
26807;BME280;14380;49.910;6.792;2023-02-14T04:43:06;100615.00;;;-0.17;100.00
26807;BME280;14380;49.910;6.792;2023-02-14T04:45:33;100616.69;;;-0.19;100.00
26807;BME280;14380;49.910;6.792;2023-02-14T04:48:00;100612.97;;;-0.34;100.00
26807;BME280;14380;49.910;6.792;2023-02-14T04:50:28;100616.41;;;-0.33;100.00
26807;BME280;14380;49.910;6.792;2023-02-14T04:52:54;100617.50;;;-0.23;100.00
26807;BME280;14380;49.910;6.792;2023-02-14T04:55:21;100615.63;;;-0.29;100.00
26807;BME280;14380;49.910;6.792;2023-02-14T04:57:48;100608.88;;;-0.22;100.00
26807;BME280;14380;49.910;6.792;2023-02-14T05:00:15;100609.66;;;-0.25;100.00
26807;BME280;14380;49.910;6.792;2023-02-14T05:02:42;100612.25;;;-0.25;100.00
26807;BME280;14380;49.910;6.792;2023-02-14T05:05:09;100604.41;;;-0.29;100.00
26807;BME280;14380;49.910;6.792;2023-02-14T05:07:37;100608.75;;;-0.28;100.00
26807;BME280;14380;49.910;6.792;2023-02-14T05:10:05;100606.09;;;-0.32;100.00
26807;BME280;14380;49.910;6.792;2023-02-14T05:12:31;100606.69;;;-0.45;100.00
26807;BME280;14380;49.910;6.792;2023-02-14T05:14:58;100603.25;;;-0.42;100.00
26807;BME280;14380;49.910;6.792;2023-02-14T05:17:25;100605.84;;;-0.42;100.00
26807;BME280;14380;49.910;6.792;2023-02-14T05:19:51;100599.03;;;-0.37;100.00
26807;BME280;14380;49.910;6.792;2023-02-14T05:22:18;100602.72;;;-0.27;100.00
26807;BME280;14380;49.910;6.792;2023-02-14T05:24:46;100603.56;;;-0.27;100.00
26807;BME280;14380;49.910;6.792;2023-02-14T05:27:13;100602.72;;;-0.26;100.00
26807;BME280;14380;49.910;6.792;2023-02-14T05:29:39;100605.38;;;-0.21;100.00
26807;BME280;14380;49.910;6.792;2023-02-14T05:32:06;100599.88;;;-0.40;100.00
26807;BME280;14380;49.910;6.792;2023-02-14T05:34:32;100609.16;;;-0.51;100.00
26807;BME280;14380;49.910;6.792;2023-02-14T05:36:59;100612.25;;;-0.69;100.00
26807;BME280;14380;49.910;6.792;2023-02-14T05:39:27;100606.38;;;-0.61;100.00
26807;BME280;14380;49.910;6.792;2023-02-14T05:41:55;100605.22;;;-0.75;100.00
26807;BME280;14380;49.910;6.792;2023-02-14T05:44:23;100612.81;;;-0.83;100.00
26807;BME280;14380;49.910;6.792;2023-02-14T05:46:50;100603.38;;;-0.81;100.00
26807;BME280;14380;49.910;6.792;2023-02-14T05:49:16;100613.19;;;-0.66;100.00
26807;BME280;14380;49.910;6.792;2023-02-14T05:51:43;100604.03;;;-0.48;100.00
26807;BME280;14380;49.910;6.792;2023-02-14T05:54:09;100597.03;;;-0.52;100.00
26807;BME280;14380;49.910;6.792;2023-02-14T05:56:36;100604.63;;;-0.62;100.00
26807;BME280;14380;49.910;6.792;2023-02-14T05:59:04;100603.44;;;-0.78;100.00
26807;BME280;14380;49.910;6.792;2023-02-14T06:01:31;100604.25;;;-0.80;100.00
26807;BME280;14380;49.910;6.792;2023-02-14T06:03:57;100606.06;;;-0.76;100.00
26807;BME280;14380;49.910;6.792;2023-02-14T06:06:24;100609.63;;;-0.71;100.00
26807;BME280;14380;49.910;6.792;2023-02-14T06:08:50;100603.16;;;-0.92;100.00
26807;BME280;14380;49.910;6.792;2023-02-14T06:11:17;100606.38;;;-1.02;100.00
26807;BME280;14380;49.910;6.792;2023-02-14T06:13:44;100610.69;;;-1.02;100.00
26807;BME280;14380;49.910;6.792;2023-02-14T06:16:11;100598.34;;;-1.14;100.00
26807;BME280;14380;49.910;6.792;2023-02-14T06:18:38;100599.13;;;-1.18;100.00
26807;BME280;14380;49.910;6.792;2023-02-14T06:21:05;100595.75;;;-1.14;100.00
26807;BME280;14380;49.910;6.792;2023-02-14T06:23:31;100595.75;;;-1.14;100.00
26807;BME280;14380;49.910;6.792;2023-02-14T06:25:58;100597.06;;;-1.33;100.00
26807;BME280;14380;49.910;6.792;2023-02-14T06:28:25;100597.38;;;-1.20;100.00
26807;BME280;14380;49.910;6.792;2023-02-14T06:30:51;100602.16;;;-1.37;100.00
26807;BME280;14380;49.910;6.792;2023-02-14T06:33:19;100598.34;;;-1.14;100.00
26807;BME280;14380;49.910;6.792;2023-02-14T06:35:46;100602.41;;;-1.24;100.00
26807;BME280;14380;49.910;6.792;2023-02-14T06:38:14;100610.13;;;-1.27;100.00
26807;BME280;14380;49.910;6.792;2023-02-14T06:40:40;100616.13;;;-1.30;100.00
26807;BME280;14380;49.910;6.792;2023-02-14T06:43:07;100615.13;;;-1.35;100.00
26807;BME280;14380;49.910;6.792;2023-02-14T06:45:33;100615.13;;;-1.37;100.00
26807;BME280;14380;49.910;6.792;2023-02-14T06:48:00;100620.63;;;-1.23;100.00
26807;BME280;14380;49.910;6.792;2023-02-14T06:50:29;100624.25;;;-1.14;100.00
26807;BME280;14380;49.910;6.792;2023-02-14T06:52:55;100615.56;;;-1.16;100.00
26807;BME280;14380;49.910;6.792;2023-02-14T06:55:22;100623.47;;;-1.10;100.00
26807;BME280;14380;49.910;6.792;2023-02-14T06:57:49;100624.88;;;-1.25;100.00
26807;BME280;14380;49.910;6.792;2023-02-14T07:00:17;100619.63;;;-1.28;100.00
26807;BME280;14380;49.910;6.792;2023-02-14T07:02:43;100614.38;;;-1.31;100.00
26807;BME280;14380;49.910;6.792;2023-02-14T07:05:10;100627.41;;;-1.28;100.00
26807;BME280;14380;49.910;6.792;2023-02-14T07:07:38;100623.34;;;-1.16;100.00
26807;BME280;14380;49.910;6.792;2023-02-14T07:10:06;100617.28;;;-1.17;100.00
26807;BME280;14380;49.910;6.792;2023-02-14T07:12:33;100616.50;;;-1.14;100.00
26807;BME280;14380;49.910;6.792;2023-02-14T07:15:00;100616.75;;;-1.02;100.00
26807;BME280;14380;49.910;6.792;2023-02-14T07:17:26;100618.69;;;-0.92;100.00
26807;BME280;14380;49.910;6.792;2023-02-14T07:19:53;100614.28;;;-0.96;100.00
26807;BME280;14380;49.910;6.792;2023-02-14T07:22:20;100617.03;;;-0.88;100.00
26807;BME280;14380;49.910;6.792;2023-02-14T07:24:48;100620.13;;;-0.65;100.00
26807;BME280;14380;49.910;6.792;2023-02-14T07:27:15;100614.69;;;-0.77;100.00
26807;BME280;14380;49.910;6.792;2023-02-14T07:29:42;100615.09;;;-0.57;100.00
26807;BME280;14380;49.910;6.792;2023-02-14T07:32:08;100612.66;;;-0.49;100.00
26807;BME280;14380;49.910;6.792;2023-02-14T07:34:35;100615.63;;;-0.31;100.00
26807;BME280;14380;49.910;6.792;2023-02-14T07:37:01;100613.22;;;-0.20;100.00
26807;BME280;14380;49.910;6.792;2023-02-14T07:39:28;100613.69;;;-0.41;100.00
26807;BME280;14380;49.910;6.792;2023-02-14T07:41:56;100615.50;;;-0.35;100.00
26807;BME280;14380;49.910;6.792;2023-02-14T07:44:23;100621.16;;;-0.12;100.00
26807;BME280;14380;49.910;6.792;2023-02-14T07:46:50;100619.88;;;-0.34;100.00
26807;BME280;14380;49.910;6.792;2023-02-14T07:49:16;100619.97;;;-0.28;100.00
26807;BME280;14380;49.910;6.792;2023-02-14T07:51:43;100613.53;;;-0.04;100.00
26807;BME280;14380;49.910;6.792;2023-02-14T07:54:09;100610.94;;;-0.03;100.00
26807;BME280;14380;49.910;6.792;2023-02-14T07:56:36;100613.81;;;0.14;100.00
26807;BME280;14380;49.910;6.792;2023-02-14T07:59:04;100616.53;;;0.22;100.00
26807;BME280;14380;49.910;6.792;2023-02-14T08:01:31;100612.00;;;0.09;100.00
26807;BME280;14380;49.910;6.792;2023-02-14T08:03:58;100617.44;;;0.21;100.00
26807;BME280;14380;49.910;6.792;2023-02-14T08:06:24;100617.59;;;0.34;100.00
26807;BME280;14380;49.910;6.792;2023-02-14T08:08:52;100613.41;;;0.42;100.00
26807;BME280;14380;49.910;6.792;2023-02-14T08:11:19;100615.69;;;0.20;100.00
26807;BME280;14380;49.910;6.792;2023-02-14T08:13:59;100612.41;;;0.34;100.00
26807;BME280;14380;49.910;6.792;2023-02-14T08:16:27;100611.72;;;0.42;100.00
26807;BME280;14380;49.910;6.792;2023-02-14T08:18:56;100620.34;;;0.41;100.00
26807;BME280;14380;49.910;6.792;2023-02-14T08:21:23;100613.47;;;0.45;100.00
26807;BME280;14380;49.910;6.792;2023-02-14T08:23:49;100611.63;;;0.38;100.00
26807;BME280;14380;49.910;6.792;2023-02-14T08:26:16;100622.00;;;0.38;100.00
26807;BME280;14380;49.910;6.792;2023-02-14T08:28:43;100617.09;;;0.55;100.00
26807;BME280;14380;49.910;6.792;2023-02-14T08:31:10;100615.28;;;0.49;100.00
26807;BME280;14380;49.910;6.792;2023-02-14T08:33:38;100618.13;;;0.66;100.00
26807;BME280;14380;49.910;6.792;2023-02-14T08:36:05;100603.56;;;0.78;100.00
26807;BME280;14380;49.910;6.792;2023-02-14T08:38:31;100609.72;;;0.84;100.00
26807;BME280;14380;49.910;6.792;2023-02-14T08:40:59;100608.56;;;0.64;100.00
26807;BME280;14380;49.910;6.792;2023-02-14T08:43:26;100604.47;;;0.81;100.00
26807;BME280;14380;49.910;6.792;2023-02-14T08:45:52;100608.81;;;0.81;100.00
26807;BME280;14380;49.910;6.792;2023-02-14T08:48:19;100608.84;;;0.82;100.00
26807;BME280;14380;49.910;6.792;2023-02-14T08:50:49;100606.38;;;0.93;100.00
26807;BME280;14380;49.910;6.792;2023-02-14T08:53:15;100607.16;;;0.86;100.00
26807;BME280;14380;49.910;6.792;2023-02-14T08:55:42;100602.25;;;1.08;100.00
26807;BME280;14380;49.910;6.792;2023-02-14T08:58:08;100594.63;;;1.22;100.00
26807;BME280;14380;49.910;6.792;2023-02-14T09:00:35;100589.59;;;1.36;100.00
26807;BME280;14380;49.910;6.792;2023-02-14T09:03:02;100595.06;;;1.59;100.00
26807;BME280;14380;49.910;6.792;2023-02-14T09:05:28;100589.13;;;1.71;100.00
26807;BME280;14380;49.910;6.792;2023-02-14T09:07:57;100590.78;;;1.62;100.00
26807;BME280;14380;49.910;6.792;2023-02-14T09:10:24;100588.38;;;1.83;100.00
26807;BME280;14380;49.910;6.792;2023-02-14T09:12:53;100587.53;;;1.85;100.00
26807;BME280;14380;49.910;6.792;2023-02-14T09:15:20;100581.47;;;1.85;100.00
26807;BME280;14380;49.910;6.792;2023-02-14T09:17:46;100585.91;;;1.95;100.00
26807;BME280;14380;49.910;6.792;2023-02-14T09:20:14;100582.44;;;1.98;100.00
26807;BME280;14380;49.910;6.792;2023-02-14T09:22:41;100586.56;;;1.77;100.00
26807;BME280;14380;49.910;6.792;2023-02-14T09:25:09;100594.41;;;1.80;100.00
26807;BME280;14380;49.910;6.792;2023-02-14T09:27:36;100591.84;;;1.83;100.00
26807;BME280;14380;49.910;6.792;2023-02-14T09:30:03;100590.91;;;1.75;100.00
26807;BME280;14380;49.910;6.792;2023-02-14T09:32:30;100591.97;;;1.96;100.00
26807;BME280;14380;49.910;6.792;2023-02-14T09:34:57;100587.53;;;1.84;100.00
26807;BME280;14380;49.910;6.792;2023-02-14T09:37:24;100589.34;;;1.92;100.00
26807;BME280;14380;49.910;6.792;2023-02-14T09:39:51;100584.22;;;2.03;100.00
26807;BME280;14380;49.910;6.792;2023-02-14T09:42:36;100579.13;;;2.14;100.00
26807;BME280;14380;49.910;6.792;2023-02-14T09:45:10;100574.00;;;2.25;100.00
26807;BME280;14380;49.910;6.792;2023-02-14T09:47:42;100571.34;;;2.17;100.00
26807;BME280;14380;49.910;6.792;2023-02-14T09:50:16;100572.25;;;2.26;100.00
26807;BME280;14380;49.910;6.792;2023-02-14T09:52:46;100572.38;;;2.36;100.00
26807;BME280;14380;49.910;6.792;2023-02-14T09:55:15;100576.78;;;2.48;100.00
26807;BME280;14380;49.910;6.792;2023-02-14T09:57:54;100575.34;;;2.97;100.00
26807;BME280;14380;49.910;6.792;2023-02-14T10:00:32;100571.06;;;3.11;100.00
26807;BME280;14380;49.910;6.792;2023-02-14T10:03:10;100566.09;;;3.75;100.00
26807;BME280;14380;49.910;6.792;2023-02-14T10:05:47;100562.56;;;3.64;100.00
26807;BME280;14380;49.910;6.792;2023-02-14T10:08:28;100572.09;;;3.54;100.00
26807;BME280;14380;49.910;6.792;2023-02-14T10:11:01;100565.16;;;3.54;100.00
26807;BME280;14380;49.910;6.792;2023-02-14T10:13:37;100564.22;;;3.31;100.00
26807;BME280;14380;49.910;6.792;2023-02-14T10:16:08;100564.22;;;3.43;100.00
26807;BME280;14380;49.910;6.792;2023-02-14T10:18:40;100560.75;;;3.47;100.00
26807;BME280;14380;49.910;6.792;2023-02-14T10:21:10;100561.72;;;3.85;100.00
26807;BME280;14380;49.910;6.792;2023-02-14T10:23:44;100564.34;;;4.24;100.00
26807;BME280;14380;49.910;6.792;2023-02-14T10:26:16;100566.97;;;4.07;100.00
26807;BME280;14380;49.910;6.792;2023-02-14T10:28:47;100567.84;;;4.07;100.00
26807;BME280;14380;49.910;6.792;2023-02-14T10:31:19;100552.16;;;4.38;100.00
26807;BME280;14380;49.910;6.792;2023-02-14T10:33:51;100557.38;;;4.47;100.00
26807;BME280;14380;49.910;6.792;2023-02-14T10:36:27;100546.88;;;4.75;100.00
26807;BME280;14380;49.910;6.792;2023-02-14T10:39:01;100551.19;;;4.89;100.00
26807;BME280;14380;49.910;6.792;2023-02-14T10:41:40;100543.34;;;4.95;100.00
26807;BME280;14380;49.910;6.792;2023-02-14T10:44:23;100549.41;;;5.02;100.00
26807;BME280;14380;49.910;6.792;2023-02-14T10:46:58;100543.28;;;5.06;100.00
26807;BME280;14380;49.910;6.792;2023-02-14T10:49:37;100539.75;;;5.18;100.00
26807;BME280;14380;49.910;6.792;2023-02-14T10:52:13;100542.19;;;5.54;100.00
26807;BME280;14380;49.910;6.792;2023-02-14T10:54:43;100537.78;;;5.57;100.00
26807;BME280;14380;49.910;6.792;2023-02-14T10:57:14;100536.13;;;5.42;100.00
26807;BME280;14380;49.910;6.792;2023-02-14T10:59:49;100529.16;;;5.43;100.00
26807;BME280;14380;49.910;6.792;2023-02-14T11:02:21;100528.25;;;5.45;100.00
26807;BME280;14380;49.910;6.792;2023-02-14T11:04:50;100522.31;;;5.12;100.00
26807;BME280;14380;49.910;6.792;2023-02-14T11:07:19;100515.94;;;5.63;100.00
26807;BME280;14380;49.910;6.792;2023-02-14T11:09:47;100515.69;;;5.97;100.00
26807;BME280;14380;49.910;6.792;2023-02-14T11:12:35;100512.66;;;6.48;100.00
26807;BME280;14380;49.910;6.792;2023-02-14T11:15:22;100506.41;;;6.59;100.00
26807;BME280;14380;49.910;6.792;2023-02-14T11:18:07;100502.56;;;6.06;100.00
26807;BME280;14380;49.910;6.792;2023-02-14T11:20:34;100498.28;;;5.91;100.00
26807;BME280;14380;49.910;6.792;2023-02-14T11:23:00;100494.84;;;5.78;100.00
26807;BME280;14380;49.910;6.792;2023-02-14T11:25:28;100494.84;;;5.81;100.00
26807;BME280;14380;49.910;6.792;2023-02-14T11:28:01;100492.19;;;5.85;100.00
26807;BME280;14380;49.910;6.792;2023-02-14T11:30:33;100489.53;;;5.92;100.00
26807;BME280;14380;49.910;6.792;2023-02-14T11:33:01;100486.81;;;6.06;100.00
26807;BME280;14380;49.910;6.792;2023-02-14T11:35:29;100484.69;;;6.46;100.00
26807;BME280;14380;49.910;6.792;2023-02-14T11:38:00;100483.94;;;6.33;100.00
26807;BME280;14380;49.910;6.792;2023-02-14T11:40:29;100480.63;;;6.12;100.00
26807;BME280;14380;49.910;6.792;2023-02-14T11:42:59;100479.66;;;6.21;100.00
26807;BME280;14380;49.910;6.792;2023-02-14T11:45:40;100476.81;;;6.44;100.00
26807;BME280;14380;49.910;6.792;2023-02-14T11:48:14;100471.66;;;6.36;100.00
26807;BME280;14380;49.910;6.792;2023-02-14T11:50:42;100474.44;;;6.99;100.00
26807;BME280;14380;49.910;6.792;2023-02-14T11:53:10;100464.94;;;6.89;100.00
26807;BME280;14380;49.910;6.792;2023-02-14T11:55:37;100463.41;;;6.72;100.00
26807;BME280;14380;49.910;6.792;2023-02-14T11:58:06;100457.88;;;6.94;100.00
26807;BME280;14380;49.910;6.792;2023-02-14T12:00:35;100449.25;;;6.84;100.00
26807;BME280;14380;49.910;6.792;2023-02-14T12:03:04;100444.63;;;7.05;100.00
26807;BME280;14380;49.910;6.792;2023-02-14T12:05:35;100439.84;;;7.33;100.00
26807;BME280;14380;49.910;6.792;2023-02-14T12:08:04;100435.31;;;7.43;100.00
26807;BME280;14380;49.910;6.792;2023-02-14T12:10:33;100431.09;;;7.33;100.00
26807;BME280;14380;49.910;6.792;2023-02-14T12:13:16;100425.97;;;7.23;100.00
26807;BME280;14380;49.910;6.792;2023-02-14T12:15:52;100421.25;;;7.47;100.00
26807;BME280;14380;49.910;6.792;2023-02-14T12:18:36;100410.50;;;7.61;100.00
26807;BME280;14380;49.910;6.792;2023-02-14T12:21:17;100403.78;;;7.96;100.00
26807;BME280;14380;49.910;6.792;2023-02-14T12:23:49;100396.50;;;8.11;100.00
26807;BME280;14380;49.910;6.792;2023-02-14T12:26:25;100391.22;;;8.12;100.00
26807;BME280;14380;49.910;6.792;2023-02-14T12:28:57;100386.69;;;8.19;100.00
26807;BME280;14380;49.910;6.792;2023-02-14T12:31:29;100383.34;;;8.58;100.00
26807;BME280;14380;49.910;6.792;2023-02-14T12:33:56;100383.22;;;8.62;100.00
26807;BME280;14380;49.910;6.792;2023-02-14T12:36:34;100373.72;;;8.98;100.00
26807;BME280;14380;49.910;6.792;2023-02-14T12:39:08;100369.59;;;9.23;100.00
26807;BME280;14380;49.910;6.792;2023-02-14T12:41:45;100366.47;;;9.44;100.00
26807;BME280;14380;49.910;6.792;2023-02-14T12:44:20;100361.75;;;9.58;100.00
26807;BME280;14380;49.910;6.792;2023-02-14T12:47:10;100357.69;;;9.78;100.00
26807;BME280;14380;49.910;6.792;2023-02-14T12:49:55;100351.13;;;9.94;100.00
26807;BME280;14380;49.910;6.792;2023-02-14T12:52:37;100349.91;;;10.06;99.90
26807;BME280;14380;49.910;6.792;2023-02-14T12:55:26;100352.09;;;10.23;99.20
26807;BME280;14380;49.910;6.792;2023-02-14T12:57:58;100341.78;;;10.47;98.44
26807;BME280;14380;49.910;6.792;2023-02-14T13:00:33;100341.59;;;10.53;98.10
26807;BME280;14380;49.910;6.792;2023-02-14T13:06:03;100330.56;;;10.69;96.01
26807;BME280;14380;49.910;6.792;2023-02-14T13:11:35;100320.06;;;10.96;95.60
26807;BME280;14380;49.910;6.792;2023-02-14T13:14:12;100308.41;;;11.01;92.52
26807;BME280;14380;49.910;6.792;2023-02-14T13:16:45;100299.56;;;11.03;92.90
26807;BME280;14380;49.910;6.792;2023-02-14T13:19:27;100298.75;;;11.00;92.77
26807;BME280;14380;49.910;6.792;2023-02-14T13:21:58;100296.59;;;11.13;93.03
26807;BME280;14380;49.910;6.792;2023-02-14T13:24:28;100299.00;;;11.21;90.78